createdAt,value
2019-01-26T00:00:38.206Z,99873.04
2019-01-26T00:03:08.655Z,99875.20
2019-01-26T00:05:38.905Z,99876.80
2019-01-26T00:08:11.000Z,99886.16
2019-01-26T00:10:41.418Z,99868.67
2019-01-26T00:13:12.085Z,99864.01
2019-01-26T00:15:42.553Z,99841.77
2019-01-26T00:18:13.170Z,99838.35
2019-01-26T00:20:43.369Z,99837.04
2019-01-26T00:23:13.636Z,99825.20
2019-01-26T00:25:43.808Z,99826.58
2019-01-26T00:28:14.053Z,99819.91
2019-01-26T00:30:44.444Z,99809.05
2019-01-26T00:33:15.770Z,99817.97
2019-01-26T00:35:46.095Z,99812.53
2019-01-26T00:38:16.460Z,99805.47
2019-01-26T00:40:46.692Z,99807.55
2019-01-26T00:43:17.044Z,99803.50
2019-01-26T00:45:47.859Z,99793.77
2019-01-26T00:48:18.070Z,99791.94
2019-01-26T00:50:48.600Z,99783.98
2019-01-26T00:53:19.585Z,99787.40
2019-01-26T00:55:49.914Z,99769.98
2019-01-26T00:58:23.675Z,99761.48
2019-01-26T01:00:53.193Z,99765.48
2019-01-26T01:03:23.691Z,99759.78
2019-01-26T01:05:54.277Z,99763.77
2019-01-26T01:08:24.845Z,99768.61
2019-01-26T01:10:55.052Z,99764.09
2019-01-26T01:13:25.268Z,99765.70
2019-01-26T01:15:55.541Z,99756.34
2019-01-26T01:18:25.762Z,99747.48
2019-01-26T01:20:55.963Z,99756.00
2019-01-26T01:23:26.238Z,99758.88
2019-01-26T01:25:57.022Z,99757.34
2019-01-26T01:28:27.369Z,99764.98
2019-01-26T01:30:57.659Z,99755.41
2019-01-26T01:33:28.017Z,99754.10
2019-01-26T01:35:58.333Z,99752.70
2019-01-26T01:38:29.775Z,99752.70
2019-01-26T01:41:00.093Z,99753.48
2019-01-26T01:43:30.746Z,99744.17
2019-01-26T01:46:00.999Z,99740.24
2019-01-26T01:48:31.602Z,99739.72
2019-01-26T01:51:01.787Z,99741.03
2019-01-26T01:53:32.023Z,99736.14
2019-01-26T01:56:02.407Z,99740.03
2019-01-26T01:58:32.646Z,99732.31
2019-01-26T02:01:02.876Z,99727.33
2019-01-26T02:03:33.519Z,99719.45
2019-01-26T02:06:03.975Z,99722.86
2019-01-26T02:08:34.219Z,99720.63
2019-01-26T02:11:04.468Z,99723.00
2019-01-26T02:13:34.818Z,99726.72
2019-01-26T02:16:05.137Z,99733.61
2019-01-26T02:18:35.551Z,99723.93
2019-01-26T02:21:05.794Z,99724.32
2019-01-26T02:23:36.400Z,99715.78
2019-01-26T02:26:06.682Z,99717.45
2019-01-26T02:28:37.373Z,99703.73
2019-01-26T02:31:07.620Z,99703.73
2019-01-26T02:33:37.877Z,99708.91
2019-01-26T02:36:09.460Z,99712.77
2019-01-26T02:38:39.680Z,99712.77
2019-01-26T02:41:09.903Z,99713.69
2019-01-26T02:43:40.498Z,99716.30
2019-01-26T02:46:10.716Z,99717.36
2019-01-26T02:48:41.046Z,99709.48
2019-01-26T02:51:11.617Z,99709.06
2019-01-26T02:53:41.940Z,99714.25
2019-01-26T02:56:12.185Z,99703.68
2019-01-26T02:58:42.480Z,99702.89
2019-01-26T03:01:12.796Z,99692.78
2019-01-26T03:03:43.237Z,99697.53
2019-01-26T03:06:13.543Z,99695.38
2019-01-26T03:08:43.791Z,99696.03
2019-01-26T03:11:14.028Z,99696.52
2019-01-26T03:13:44.334Z,99688.80
2019-01-26T03:16:14.554Z,99689.30
2019-01-26T03:18:44.799Z,99694.02
2019-01-26T03:21:15.026Z,99697.92
2019-01-26T03:23:45.394Z,99689.92
2019-01-26T03:26:15.680Z,99685.20
2019-01-26T03:28:45.976Z,99675.94
2019-01-26T03:31:16.324Z,99683.55
2019-01-26T03:33:46.554Z,99680.59
2019-01-26T03:36:16.949Z,99680.16
2019-01-26T03:38:47.296Z,99683.72
2019-01-26T03:41:17.526Z,99668.78
2019-01-26T03:43:47.823Z,99676.55
2019-01-26T03:46:18.176Z,99674.41
2019-01-26T03:48:48.444Z,99671.31
2019-01-26T03:51:18.971Z,99661.77
2019-01-26T03:53:50.292Z,99658.00
2019-01-26T03:56:20.492Z,99655.67
2019-01-26T03:58:50.920Z,99656.92
2019-01-26T04:01:21.232Z,99645.85
2019-01-26T04:03:52.365Z,99645.39
2019-01-26T04:06:22.877Z,99642.98
2019-01-26T04:08:53.127Z,99647.27
2019-01-26T04:11:23.545Z,99653.58
2019-01-26T04:13:53.954Z,99651.25
2019-01-26T04:16:24.210Z,99653.95
2019-01-26T04:18:55.436Z,99650.84
2019-01-26T04:21:26.773Z,99645.52
2019-01-26T04:23:57.004Z,99641.00
2019-01-26T04:26:27.439Z,99639.96
2019-01-26T04:28:57.830Z,99635.63
2019-01-26T04:31:28.065Z,99635.92
2019-01-26T04:33:58.319Z,99628.86
2019-01-26T04:36:28.671Z,99628.36
2019-01-26T04:38:59.279Z,99625.47
2019-01-26T04:41:29.527Z,99629.83
2019-01-26T04:44:04.321Z,99629.18
2019-01-26T04:46:34.750Z,99614.05
2019-01-26T04:49:04.973Z,99612.87
2019-01-26T04:51:35.589Z,99613.16
2019-01-26T04:54:06.835Z,99618.81
2019-01-26T04:56:37.043Z,99615.38
2019-01-26T04:59:07.664Z,99616.05
2019-01-26T05:01:38.980Z,99611.02
2019-01-26T05:04:09.277Z,99616.48
2019-01-26T05:06:39.617Z,99611.59
2019-01-26T05:09:12.979Z,99608.53
2019-01-26T05:11:43.222Z,99610.93
2019-01-26T05:14:13.544Z,99594.97
2019-01-26T05:16:43.737Z,99603.81
2019-01-26T05:19:15.285Z,99590.54
2019-01-26T05:21:45.608Z,99593.88
2019-01-26T05:24:15.843Z,99593.81
2019-01-26T05:26:46.164Z,99593.75
2019-01-26T05:29:16.543Z,99590.35
2019-01-26T05:31:47.891Z,99585.67
2019-01-26T05:34:18.189Z,99576.52
2019-01-26T05:36:48.436Z,99579.81
2019-01-26T05:39:20.035Z,99580.41
2019-01-26T05:41:50.516Z,99569.47
2019-01-26T05:44:20.793Z,99576.05
2019-01-26T05:46:51.004Z,99570.72
2019-01-26T05:49:22.311Z,99575.62
2019-01-26T05:51:52.547Z,99574.75
2019-01-26T05:54:22.802Z,99578.14
2019-01-26T05:56:53.109Z,99579.40
2019-01-26T05:59:23.421Z,99575.13
2019-01-26T06:01:53.678Z,99583.64
2019-01-26T06:04:24.049Z,99578.36
2019-01-26T06:06:54.710Z,99579.30
2019-01-26T06:09:25.368Z,99573.23
2019-01-26T06:11:55.736Z,99571.55
2019-01-26T06:14:27.100Z,99569.85
2019-01-26T06:16:57.308Z,99582.11
2019-01-26T06:19:27.790Z,99575.13
2019-01-26T06:21:59.148Z,99573.34
2019-01-26T06:24:29.793Z,99557.59
2019-01-26T06:27:00.080Z,99565.80
2019-01-26T06:29:30.307Z,99561.93
2019-01-26T06:32:00.677Z,99557.59
2019-01-26T06:34:30.972Z,99563.62
2019-01-26T06:37:01.280Z,99560.14
2019-01-26T06:39:31.586Z,99557.88
2019-01-26T06:42:02.157Z,99554.13
2019-01-26T06:44:32.382Z,99547.23
2019-01-26T06:47:03.638Z,99549.70
2019-01-26T06:49:34.065Z,99546.11
2019-01-26T06:52:04.718Z,99547.81
2019-01-26T06:54:34.966Z,99549.13
2019-01-26T06:57:05.503Z,99545.55
2019-01-26T06:59:35.733Z,99545.72
2019-01-26T07:02:06.120Z,99545.72
2019-01-26T07:04:53.649Z,99549.30
2019-01-26T07:07:24.188Z,99555.23
2019-01-26T07:09:54.814Z,99546.30
2019-01-26T07:12:26.464Z,99541.77
2019-01-26T07:14:56.721Z,99548.73
2019-01-26T07:17:27.010Z,99542.03
2019-01-26T07:19:57.282Z,99548.56
2019-01-26T07:22:27.599Z,99551.75
2019-01-26T07:24:57.824Z,99563.23
2019-01-26T07:27:28.249Z,99554.94
2019-01-26T07:29:58.706Z,99551.55
2019-01-26T07:32:29.419Z,99552.13
2019-01-26T07:34:59.806Z,99556.45
2019-01-26T07:37:30.097Z,99564.02
2019-01-26T07:40:00.415Z,99556.16
2019-01-26T07:42:31.963Z,99559.85
2019-01-26T07:45:04.481Z,99563.98
2019-01-26T07:47:35.741Z,99563.04
2019-01-26T07:50:07.609Z,99567.78
2019-01-26T07:52:37.810Z,99566.83
2019-01-26T07:55:09.075Z,99568.63
2019-01-26T07:57:39.422Z,99570.28
2019-01-26T08:00:15.809Z,99567.58
2019-01-26T08:02:46.137Z,99568.86
2019-01-26T08:05:16.387Z,99576.58
2019-01-26T08:07:46.937Z,99568.17
2019-01-26T08:10:19.719Z,99565.25
2019-01-26T08:12:50.501Z,99571.08
2019-01-26T08:15:23.297Z,99569.95
2019-01-26T08:17:53.512Z,99572.13
2019-01-26T08:20:24.471Z,99573.34
2019-01-26T08:22:54.960Z,99576.77
2019-01-26T08:25:25.247Z,99575.89
2019-01-26T08:27:55.578Z,99577.47
2019-01-26T08:30:25.892Z,99579.41
2019-01-26T08:32:56.153Z,99578.17
2019-01-26T08:35:26.615Z,99566.22
2019-01-26T08:37:56.893Z,99571.02
2019-01-26T08:40:27.144Z,99578.60
2019-01-26T08:42:57.516Z,99573.02
2019-01-26T08:45:28.190Z,99572.23
2019-01-26T08:47:58.490Z,99577.26
2019-01-26T08:50:30.925Z,99577.62
2019-01-26T08:53:01.258Z,99580.77
2019-01-26T08:55:31.563Z,99579.55
2019-01-26T08:58:01.761Z,99581.94
2019-01-26T09:00:32.085Z,99579.88
2019-01-26T09:03:21.485Z,99572.20
2019-01-26T09:05:57.625Z,99579.66
2019-01-26T09:08:27.943Z,99582.41
2019-01-26T09:10:58.333Z,99578.92
2019-01-26T09:13:28.724Z,99580.52
2019-01-26T09:15:58.989Z,99585.16
2019-01-26T09:18:29.242Z,99580.40
2019-01-26T09:20:59.781Z,99583.23
2019-01-26T09:23:31.196Z,99586.41
2019-01-26T09:26:01.470Z,99583.38
2019-01-26T09:28:31.760Z,99581.09
2019-01-26T09:31:02.073Z,99580.54
2019-01-26T09:33:32.309Z,99580.95
2019-01-26T09:36:02.531Z,99579.31
2019-01-26T09:38:32.856Z,99579.78
2019-01-26T09:41:03.074Z,99574.97
2019-01-26T09:43:33.367Z,99578.21
2019-01-26T09:46:03.711Z,99575.78
2019-01-26T09:48:33.928Z,99580.33
2019-01-26T09:51:04.282Z,99568.92
2019-01-26T09:53:34.509Z,99572.16
2019-01-26T09:56:04.797Z,99574.36
2019-01-26T09:58:35.841Z,99572.73
2019-01-26T10:01:06.235Z,99566.16
2019-01-26T10:03:36.594Z,99574.00
2019-01-26T10:06:06.854Z,99569.29
2019-01-26T10:08:37.199Z,99571.34
2019-01-26T10:11:08.236Z,99570.10
2019-01-26T10:13:38.655Z,99577.19
2019-01-26T10:16:09.078Z,99576.58
2019-01-26T10:18:39.857Z,99566.98
2019-01-26T10:21:11.534Z,99565.70
2019-01-26T10:23:43.571Z,99573.02
2019-01-26T10:26:13.784Z,99567.73
2019-01-26T10:28:46.506Z,99578.50
2019-01-26T10:31:16.710Z,99567.05
2019-01-26T10:33:47.212Z,99565.91
2019-01-26T10:36:25.295Z,99568.31
2019-01-26T10:39:14.460Z,99563.02
2019-01-26T10:42:06.614Z,99562.34
2019-01-26T10:44:37.295Z,99565.98
2019-01-26T10:47:07.620Z,99567.84
2019-01-26T10:49:38.126Z,99569.27
2019-01-26T10:52:08.409Z,99563.31
2019-01-26T10:54:38.669Z,99555.41
2019-01-26T10:57:09.001Z,99560.83
2019-01-26T10:59:39.430Z,99552.80
2019-01-26T11:02:09.835Z,99555.25
2019-01-26T11:04:40.172Z,99552.60
2019-01-26T11:07:10.428Z,99553.80
2019-01-26T11:09:41.100Z,99555.81
2019-01-26T11:12:11.479Z,99554.25
2019-01-26T11:14:41.847Z,99557.98
2019-01-26T11:17:12.062Z,99556.53
2019-01-26T11:19:42.437Z,99559.73
2019-01-26T11:22:12.844Z,99562.38
2019-01-26T11:24:43.175Z,99559.96
2019-01-26T11:27:13.688Z,99561.27
2019-01-26T11:29:44.001Z,99557.25
2019-01-26T11:32:14.309Z,99563.05
2019-01-26T11:34:44.750Z,99552.42
2019-01-26T11:37:15.423Z,99555.41
2019-01-26T11:39:49.195Z,99551.97
2019-01-26T11:42:19.509Z,99553.44
2019-01-26T11:45:07.582Z,99543.20
2019-01-26T11:47:38.036Z,99547.39
2019-01-26T11:50:10.793Z,99542.94
2019-01-26T11:52:40.994Z,99542.38
2019-01-26T11:55:23.385Z,99541.05
2019-01-26T11:57:53.725Z,99544.87
2019-01-26T12:00:46.027Z,99540.52
2019-01-26T12:03:24.944Z,99539.08
2019-01-26T12:06:00.293Z,99539.80
2019-01-26T12:08:30.848Z,99540.40
2019-01-26T12:11:01.088Z,99542.38
2019-01-26T12:13:31.437Z,99533.82
2019-01-26T12:16:01.928Z,99530.69
2019-01-26T12:18:32.161Z,99539.29
2019-01-26T12:21:09.248Z,99536.07
2019-01-26T12:23:39.459Z,99535.63
2019-01-26T12:26:10.039Z,99531.03
2019-01-26T12:28:40.426Z,99537.46
2019-01-26T12:31:10.705Z,99532.39
2019-01-26T12:33:41.474Z,99533.56
2019-01-26T12:36:11.739Z,99523.88
2019-01-26T12:38:42.230Z,99522.20
2019-01-26T12:41:14.359Z,99517.20
2019-01-26T12:43:45.260Z,99510.08
2019-01-26T12:46:16.662Z,99512.38
2019-01-26T12:48:49.832Z,99513.06
2019-01-26T12:51:20.592Z,99507.39
2019-01-26T12:53:51.408Z,99506.97
2019-01-26T12:56:21.686Z,99508.89
2019-01-26T12:58:52.096Z,99504.91
2019-01-26T13:01:22.715Z,99499.36
2019-01-26T13:03:53.496Z,99503.30
2019-01-26T13:06:24.385Z,99497.69
2019-01-26T13:08:54.760Z,99494.36
2019-01-26T13:11:29.023Z,99486.64
2019-01-26T13:13:59.269Z,99490.34
2019-01-26T13:16:29.556Z,99485.77
2019-01-26T13:18:59.907Z,99491.73
2019-01-26T13:21:30.356Z,99490.41
2019-01-26T13:24:00.624Z,99492.06
2019-01-26T13:26:31.274Z,99477.02
2019-01-26T13:29:01.852Z,99479.80
2019-01-26T13:31:32.135Z,99471.05
2019-01-26T13:34:03.793Z,99476.95
2019-01-26T13:36:34.336Z,99468.05
2019-01-26T13:39:07.912Z,99465.39
2019-01-26T13:41:38.450Z,99461.05
2019-01-26T13:44:08.871Z,99465.23
2019-01-26T13:46:39.531Z,99464.30
2019-01-26T13:49:10.239Z,99461.72
2019-01-26T13:51:41.076Z,99469.61
2019-01-26T13:54:13.389Z,99465.64
2019-01-26T13:56:43.974Z,99464.80
2019-01-26T13:59:14.309Z,99448.28
2019-01-26T14:01:44.664Z,99462.24
2019-01-26T14:04:14.988Z,99457.14
2019-01-26T14:06:45.432Z,99456.05
2019-01-26T14:09:15.776Z,99455.55
2019-01-26T14:11:46.555Z,99455.02
2019-01-26T14:14:17.220Z,99448.75
2019-01-26T14:16:47.552Z,99449.89
2019-01-26T14:19:18.123Z,99442.11
2019-01-26T14:21:48.506Z,99445.60
2019-01-26T14:24:18.998Z,99437.31
2019-01-26T14:26:49.779Z,99441.94
2019-01-26T14:29:20.797Z,99433.52
2019-01-26T14:31:51.090Z,99441.59
2019-01-26T14:34:21.424Z,99437.43
2019-01-26T14:36:51.864Z,99433.21
2019-01-26T14:39:23.074Z,99431.54
2019-01-26T14:41:57.960Z,99423.12
2019-01-26T14:44:28.204Z,99425.88
2019-01-26T14:47:00.030Z,99426.59
2019-01-26T14:49:31.289Z,99422.50
2019-01-26T14:52:01.625Z,99433.77
2019-01-26T14:54:32.305Z,99429.23
2019-01-26T14:57:03.190Z,99425.23
2019-01-26T14:59:36.343Z,99419.27
2019-01-26T15:02:07.396Z,99421.70
2019-01-26T15:04:38.930Z,99413.87
2019-01-26T15:07:09.426Z,99421.97
2019-01-26T15:09:39.871Z,99416.61
2019-01-26T15:12:14.955Z,99418.16
2019-01-26T15:14:45.309Z,99417.05
2019-01-26T15:17:15.761Z,99412.72
2019-01-26T15:19:46.251Z,99418.86
2019-01-26T15:22:17.776Z,99419.16
2019-01-26T15:24:48.537Z,99410.48
2019-01-26T15:27:22.657Z,99405.41
2019-01-26T15:29:54.369Z,99402.59
2019-01-26T15:32:24.691Z,99401.48
2019-01-26T15:34:54.957Z,99409.27
2019-01-26T15:37:25.578Z,99413.13
2019-01-26T15:39:56.112Z,99412.28
2019-01-26T15:42:26.544Z,99404.64
2019-01-26T15:44:56.894Z,99401.34
2019-01-26T15:47:27.302Z,99400.02
2019-01-26T15:49:57.594Z,99399.43
2019-01-26T15:52:28.896Z,99400.13
2019-01-26T15:55:04.814Z,99393.99
2019-01-26T15:57:36.666Z,99388.70
2019-01-26T16:00:09.741Z,99391.53
2019-01-26T16:02:41.321Z,99387.20
2019-01-26T16:05:11.760Z,99380.33
2019-01-26T16:07:42.148Z,99374.93
2019-01-26T16:10:17.265Z,99377.58
2019-01-26T16:12:48.227Z,99378.42
2019-01-26T16:15:21.232Z,99374.20
2019-01-26T16:17:51.959Z,99371.77
2019-01-26T16:20:23.220Z,99368.47
2019-01-26T16:22:53.487Z,99361.81
2019-01-26T16:25:24.108Z,99363.17
2019-01-26T16:27:55.148Z,99360.42
2019-01-26T16:30:30.693Z,99354.29
2019-01-26T16:33:01.270Z,99350.22
2019-01-26T16:35:31.932Z,99349.38
2019-01-26T16:38:02.219Z,99348.78
2019-01-26T16:40:34.316Z,99347.09
2019-01-26T16:43:04.994Z,99342.24
2019-01-26T16:45:37.741Z,99331.86
2019-01-26T16:48:11.296Z,99327.73
2019-01-26T16:50:41.642Z,99321.50
2019-01-26T16:53:12.300Z,99316.43
2019-01-26T16:55:42.801Z,99316.42
2019-01-26T16:58:13.006Z,99313.31
2019-01-26T17:00:49.858Z,99311.51
2019-01-26T17:03:23.620Z,99304.06
2019-01-26T17:05:54.555Z,99313.20
2019-01-26T17:08:24.948Z,99317.20
2019-01-26T17:10:55.264Z,99316.10
2019-01-26T17:13:25.710Z,99317.05
2019-01-26T17:15:56.323Z,99311.77
2019-01-26T17:18:26.618Z,99311.77
2019-01-26T17:20:58.870Z,99295.77
2019-01-26T17:23:34.549Z,99295.84
2019-01-26T17:26:05.380Z,99286.81
2019-01-26T17:28:35.958Z,99284.86
2019-01-26T17:31:06.454Z,99285.52
2019-01-26T17:33:37.084Z,99285.08
2019-01-26T17:36:07.748Z,99277.16
2019-01-26T17:38:38.113Z,99266.95
2019-01-26T17:41:08.423Z,99266.40
2019-01-26T17:43:40.230Z,99271.09
2019-01-26T17:46:10.521Z,99261.59
2019-01-26T17:48:41.184Z,99254.00
2019-01-26T17:51:11.663Z,99251.14
2019-01-26T17:53:42.262Z,99240.89
2019-01-26T17:56:13.772Z,99242.91
2019-01-26T17:58:47.144Z,99239.64
2019-01-26T18:01:17.498Z,99235.42
2019-01-26T18:03:50.579Z,99234.62
2019-01-26T18:06:23.340Z,99230.10
2019-01-26T18:08:54.058Z,99224.61
2019-01-26T18:11:31.344Z,99205.78
2019-01-26T18:14:02.272Z,99203.18
2019-01-26T18:16:33.429Z,99201.70
2019-01-26T18:19:04.888Z,99196.64
2019-01-26T18:21:36.090Z,99190.41
2019-01-26T18:24:07.254Z,99186.41
2019-01-26T18:26:37.881Z,99193.53
2019-01-26T18:29:08.627Z,99192.44
2019-01-26T18:31:43.338Z,99183.78
2019-01-26T18:34:15.652Z,99181.14
2019-01-26T18:36:45.996Z,99178.64
2019-01-26T18:39:22.409Z,99172.41
2019-01-26T18:41:54.956Z,99166.87
2019-01-26T18:44:25.746Z,99166.28
2019-01-26T18:46:56.416Z,99165.22
2019-01-26T18:49:30.111Z,99154.06
2019-01-26T18:52:01.272Z,99160.96
2019-01-26T18:54:31.974Z,99146.84
2019-01-26T18:57:02.685Z,99153.77
2019-01-26T18:59:33.227Z,99140.20
2019-01-26T19:02:03.571Z,99139.81
2019-01-26T19:04:43.840Z,99140.09
2019-01-26T19:07:17.001Z,99129.90
2019-01-26T19:09:48.089Z,99133.86
2019-01-26T19:12:20.413Z,99129.79
2019-01-26T19:14:50.657Z,99125.46
2019-01-26T19:17:21.183Z,99126.13
2019-01-26T19:19:54.792Z,99128.25
2019-01-26T19:22:25.689Z,99117.38
2019-01-26T19:24:56.204Z,99113.82
2019-01-26T19:27:29.110Z,99106.27
2019-01-26T19:29:59.750Z,99096.17
2019-01-26T19:32:32.701Z,99096.45
2019-01-26T19:35:11.148Z,99096.28
2019-01-26T19:37:41.515Z,99087.94
2019-01-26T19:40:18.729Z,99079.80
2019-01-26T19:42:51.126Z,99078.95
2019-01-26T19:45:24.059Z,99068.05
2019-01-26T19:47:55.904Z,99066.16
2019-01-26T19:50:26.844Z,99068.58
2019-01-26T19:52:57.280Z,99066.44
2019-01-26T19:55:27.715Z,99061.91
2019-01-26T19:57:58.449Z,99057.36
2019-01-26T20:00:29.081Z,99062.41
2019-01-26T20:02:59.498Z,99047.46
2019-01-26T20:05:30.324Z,99052.86
2019-01-26T20:08:01.136Z,99048.05
2019-01-26T20:10:31.298Z,99043.61
2019-01-26T20:13:01.719Z,99039.88
2019-01-26T20:15:33.189Z,99034.73
2019-01-26T20:18:03.618Z,99027.76
2019-01-26T20:20:34.724Z,99030.77
2019-01-26T20:23:05.293Z,99026.73
2019-01-26T20:25:36.076Z,99026.02
2019-01-26T20:28:06.724Z,99010.28
2019-01-26T20:30:38.579Z,98999.95
2019-01-26T20:33:10.117Z,99006.19
2019-01-26T20:35:40.482Z,98996.70
2019-01-26T20:38:11.023Z,98995.03
2019-01-26T20:40:43.924Z,98990.34
2019-01-26T20:43:14.503Z,98982.34
2019-01-26T20:45:46.238Z,98976.22
2019-01-26T20:48:22.419Z,98982.59
2019-01-26T20:50:53.511Z,98978.78
2019-01-26T20:53:24.063Z,98970.13
2019-01-26T20:55:55.117Z,98963.77
2019-01-26T20:58:25.370Z,98960.41
2019-01-26T21:00:58.130Z,98962.93
2019-01-26T21:03:29.136Z,98956.20
2019-01-26T21:06:01.564Z,98955.27
2019-01-26T21:08:31.856Z,98948.55
2019-01-26T21:11:04.103Z,98951.80
2019-01-26T21:13:39.921Z,98942.78
2019-01-26T21:16:11.067Z,98941.85
2019-01-26T21:18:41.494Z,98935.00
2019-01-26T21:21:12.211Z,98937.41
2019-01-26T21:23:45.654Z,98935.99
2019-01-26T21:26:15.192Z,98929.86
2019-01-26T21:28:46.775Z,98928.69
2019-01-26T21:31:19.600Z,98930.00
2019-01-26T21:33:50.056Z,98928.70
2019-01-26T21:36:20.730Z,98927.86
2019-01-26T21:38:51.402Z,98923.16
2019-01-26T21:41:22.533Z,98915.72
2019-01-26T21:43:53.268Z,98909.47
2019-01-26T21:46:24.140Z,98905.25
2019-01-26T21:48:54.798Z,98910.81
2019-01-26T21:51:25.512Z,98904.91
2019-01-26T21:53:55.921Z,98901.17
2019-01-26T21:56:26.225Z,98904.53
2019-01-26T21:58:56.627Z,98898.16
2019-01-26T22:01:28.230Z,98892.52
2019-01-26T22:04:01.584Z,98886.97
2019-01-26T22:06:34.117Z,98887.69
2019-01-26T22:09:11.639Z,98884.69
2019-01-26T22:11:42.125Z,98876.88
2019-01-26T22:14:12.577Z,98869.04
2019-01-26T22:16:46.308Z,98861.71
2019-01-26T22:19:21.875Z,98863.03
2019-01-26T22:21:51.196Z,98856.06
2019-01-26T22:24:21.601Z,98851.25
2019-01-26T22:26:53.233Z,98845.11
2019-01-26T22:29:23.452Z,98849.66
2019-01-26T22:31:53.884Z,98851.59
2019-01-26T22:34:26.999Z,98846.08
2019-01-26T22:36:59.883Z,98837.53
2019-01-26T22:39:30.310Z,98842.34
2019-01-26T22:42:00.674Z,98834.75
2019-01-26T22:44:31.613Z,98831.62
2019-01-26T22:47:01.794Z,98825.72
2019-01-26T22:49:33.282Z,98819.81
2019-01-26T22:52:05.657Z,98814.64
2019-01-26T22:54:38.530Z,98810.80
2019-01-26T22:57:09.036Z,98815.87
2019-01-26T22:59:39.582Z,98809.02
2019-01-26T23:02:10.571Z,98811.41
2019-01-26T23:05:21.180Z,98797.20
2019-01-26T23:07:54.959Z,98790.59
2019-01-26T23:10:55.819Z,98788.69
2019-01-26T23:13:54.199Z,98786.88
2019-01-26T23:16:59.864Z,98778.19
2019-01-26T23:19:46.454Z,98772.90
2019-01-26T23:22:46.596Z,98769.38
2019-01-26T23:25:55.785Z,98774.80
2019-01-26T23:29:14.887Z,98764.95
2019-01-26T23:31:45.150Z,98758.73
2019-01-26T23:34:15.416Z,98749.56
2019-01-26T23:36:45.840Z,98745.59
2019-01-26T23:39:16.084Z,98742.72
2019-01-26T23:41:46.983Z,98732.25
2019-01-26T23:44:17.287Z,98726.70
2019-01-26T23:46:47.501Z,98724.41
2019-01-26T23:49:17.708Z,98718.89
2019-01-26T23:51:48.391Z,98719.51
2019-01-26T23:54:18.707Z,98711.66
2019-01-26T23:56:49.066Z,98712.76
2019-01-26T23:59:19.361Z,98710.47
